sensor_id;sensor_type;location;lat;lon;timestamp;P1;durP1;ratioP1;P2;durP2;ratioP2
40314;SDS011;26021;45.640;11.302;2023-03-23T00:02:29;41.05;;;29.48;;
40314;SDS011;26021;45.640;11.302;2023-03-23T00:05:03;40.67;;;30.00;;
40314;SDS011;26021;45.640;11.302;2023-03-23T00:07:32;41.92;;;29.45;;
40314;SDS011;26021;45.640;11.302;2023-03-23T00:10:00;44.83;;;30.30;;
40314;SDS011;26021;45.640;11.302;2023-03-23T00:12:27;45.45;;;30.90;;
40314;SDS011;26021;45.640;11.302;2023-03-23T00:15:01;44.42;;;31.48;;
40314;SDS011;26021;45.640;11.302;2023-03-23T00:17:28;48.60;;;32.15;;
40314;SDS011;26021;45.640;11.302;2023-03-23T00:19:54;44.97;;;30.88;;
40314;SDS011;26021;45.640;11.302;2023-03-23T00:22:20;45.50;;;31.50;;
40314;SDS011;26021;45.640;11.302;2023-03-23T00:24:46;50.75;;;32.90;;
40314;SDS011;26021;45.640;11.302;2023-03-23T00:27:15;44.80;;;32.58;;
40314;SDS011;26021;45.640;11.302;2023-03-23T00:29:40;47.50;;;32.58;;
40314;SDS011;26021;45.640;11.302;2023-03-23T00:32:07;42.47;;;30.38;;
40314;SDS011;26021;45.640;11.302;2023-03-23T00:34:37;42.65;;;31.33;;
40314;SDS011;26021;45.640;11.302;2023-03-23T00:37:05;44.30;;;30.63;;
40314;SDS011;26021;45.640;11.302;2023-03-23T00:39:31;47.00;;;32.28;;
40314;SDS011;26021;45.640;11.302;2023-03-23T00:41:56;45.22;;;30.48;;
40314;SDS011;26021;45.640;11.302;2023-03-23T00:44:26;42.83;;;31.63;;
40314;SDS011;26021;45.640;11.302;2023-03-23T00:46:53;42.40;;;31.00;;
40314;SDS011;26021;45.640;11.302;2023-03-23T00:49:21;49.58;;;33.60;;
40314;SDS011;26021;45.640;11.302;2023-03-23T00:51:50;45.08;;;31.95;;
40314;SDS011;26021;45.640;11.302;2023-03-23T00:54:20;45.97;;;32.58;;
40314;SDS011;26021;45.640;11.302;2023-03-23T00:56:46;49.13;;;33.92;;
40314;SDS011;26021;45.640;11.302;2023-03-23T00:59:12;52.03;;;34.83;;
40314;SDS011;26021;45.640;11.302;2023-03-23T01:01:37;48.80;;;35.08;;
40314;SDS011;26021;45.640;11.302;2023-03-23T01:04:03;52.33;;;34.50;;
40314;SDS011;26021;45.640;11.302;2023-03-23T01:06:36;49.65;;;35.33;;
40314;SDS011;26021;45.640;11.302;2023-03-23T01:09:05;48.47;;;34.50;;
40314;SDS011;26021;45.640;11.302;2023-03-23T01:11:35;47.17;;;32.80;;
40314;SDS011;26021;45.640;11.302;2023-03-23T01:14:02;49.47;;;34.47;;
40314;SDS011;26021;45.640;11.302;2023-03-23T01:16:28;46.65;;;34.47;;
40314;SDS011;26021;45.640;11.302;2023-03-23T01:18:53;47.65;;;34.22;;
40314;SDS011;26021;45.640;11.302;2023-03-23T01:21:19;46.85;;;33.38;;
40314;SDS011;26021;45.640;11.302;2023-03-23T01:23:46;45.92;;;34.30;;
40314;SDS011;26021;45.640;11.302;2023-03-23T01:26:16;44.53;;;32.85;;
40314;SDS011;26021;45.640;11.302;2023-03-23T01:28:46;47.42;;;32.38;;
40314;SDS011;26021;45.640;11.302;2023-03-23T01:31:14;47.05;;;32.75;;
40314;SDS011;26021;45.640;11.302;2023-03-23T01:33:41;43.95;;;33.20;;
40314;SDS011;26021;45.640;11.302;2023-03-23T01:36:09;48.33;;;34.17;;
40314;SDS011;26021;45.640;11.302;2023-03-23T01:38:37;45.78;;;33.75;;
40314;SDS011;26021;45.640;11.302;2023-03-23T01:41:03;50.05;;;34.60;;
40314;SDS011;26021;45.640;11.302;2023-03-23T01:43:29;50.78;;;35.15;;
40314;SDS011;26021;45.640;11.302;2023-03-23T01:45:55;46.58;;;33.78;;
40314;SDS011;26021;45.640;11.302;2023-03-23T01:48:25;48.92;;;35.05;;
40314;SDS011;26021;45.640;11.302;2023-03-23T01:53:56;46.60;;;33.55;;
40314;SDS011;26021;45.640;11.302;2023-03-23T01:56:27;48.13;;;34.90;;
40314;SDS011;26021;45.640;11.302;2023-03-23T01:58:57;53.03;;;37.35;;
40314;SDS011;26021;45.640;11.302;2023-03-23T02:01:23;51.55;;;37.83;;
40314;SDS011;26021;45.640;11.302;2023-03-23T02:03:50;54.80;;;38.67;;
40314;SDS011;26021;45.640;11.302;2023-03-23T02:06:19;56.00;;;38.53;;
40314;SDS011;26021;45.640;11.302;2023-03-23T02:08:50;53.47;;;38.40;;
40314;SDS011;26021;45.640;11.302;2023-03-23T02:11:33;51.72;;;37.78;;
40314;SDS011;26021;45.640;11.302;2023-03-23T02:13:59;54.13;;;37.15;;
40314;SDS011;26021;45.640;11.302;2023-03-23T02:27:23;50.70;;;35.05;;
40314;SDS011;26021;45.640;11.302;2023-03-23T02:33:21;49.22;;;36.92;;
40314;SDS011;26021;45.640;11.302;2023-03-23T02:36:01;55.08;;;36.88;;
40314;SDS011;26021;45.640;11.302;2023-03-23T02:41:06;49.33;;;34.53;;
40314;SDS011;26021;45.640;11.302;2023-03-23T02:43:33;49.85;;;36.08;;
40314;SDS011;26021;45.640;11.302;2023-03-23T02:46:05;47.72;;;36.03;;
40314;SDS011;26021;45.640;11.302;2023-03-23T02:48:33;50.70;;;35.88;;
40314;SDS011;26021;45.640;11.302;2023-03-23T02:51:01;50.72;;;35.83;;
40314;SDS011;26021;45.640;11.302;2023-03-23T02:53:28;48.47;;;36.83;;
40314;SDS011;26021;45.640;11.302;2023-03-23T02:55:56;48.00;;;36.45;;
40314;SDS011;26021;45.640;11.302;2023-03-23T02:58:23;48.95;;;35.90;;
40314;SDS011;26021;45.640;11.302;2023-03-23T03:00:49;46.85;;;35.33;;
40314;SDS011;26021;45.640;11.302;2023-03-23T03:03:16;50.95;;;36.35;;
40314;SDS011;26021;45.640;11.302;2023-03-23T03:08:58;47.42;;;36.55;;
40314;SDS011;26021;45.640;11.302;2023-03-23T03:11:33;48.67;;;36.10;;
40314;SDS011;26021;45.640;11.302;2023-03-23T03:16:36;50.03;;;35.83;;
40314;SDS011;26021;45.640;11.302;2023-03-23T03:19:07;55.80;;;37.50;;
40314;SDS011;26021;45.640;11.302;2023-03-23T03:21:40;53.37;;;37.73;;
40314;SDS011;26021;45.640;11.302;2023-03-23T03:24:09;50.25;;;36.33;;
40314;SDS011;26021;45.640;11.302;2023-03-23T03:26:39;48.63;;;36.70;;
40314;SDS011;26021;45.640;11.302;2023-03-23T03:29:10;49.40;;;35.58;;
40314;SDS011;26021;45.640;11.302;2023-03-23T03:31:36;50.55;;;36.58;;
40314;SDS011;26021;45.640;11.302;2023-03-23T03:34:04;49.97;;;37.10;;
40314;SDS011;26021;45.640;11.302;2023-03-23T03:36:32;50.65;;;36.92;;
40314;SDS011;26021;45.640;11.302;2023-03-23T03:39:00;52.38;;;37.65;;
40314;SDS011;26021;45.640;11.302;2023-03-23T03:41:30;50.35;;;36.00;;
40314;SDS011;26021;45.640;11.302;2023-03-23T03:43:56;46.33;;;35.30;;
40314;SDS011;26021;45.640;11.302;2023-03-23T03:46:21;47.63;;;34.90;;
40314;SDS011;26021;45.640;11.302;2023-03-23T03:48:47;47.67;;;35.90;;
40314;SDS011;26021;45.640;11.302;2023-03-23T03:51:12;55.00;;;38.28;;
40314;SDS011;26021;45.640;11.302;2023-03-23T03:53:38;52.00;;;37.20;;
40314;SDS011;26021;45.640;11.302;2023-03-23T03:56:03;52.22;;;37.47;;
40314;SDS011;26021;45.640;11.302;2023-03-23T03:58:30;51.78;;;37.15;;
40314;SDS011;26021;45.640;11.302;2023-03-23T04:00:58;49.78;;;36.75;;
40314;SDS011;26021;45.640;11.302;2023-03-23T04:03:25;56.25;;;38.45;;
40314;SDS011;26021;45.640;11.302;2023-03-23T04:05:52;52.70;;;37.22;;
40314;SDS011;26021;45.640;11.302;2023-03-23T04:08:20;50.92;;;36.03;;
40314;SDS011;26021;45.640;11.302;2023-03-23T04:10:48;50.35;;;37.38;;
40314;SDS011;26021;45.640;11.302;2023-03-23T04:13:14;50.17;;;37.15;;
40314;SDS011;26021;45.640;11.302;2023-03-23T04:15:40;50.65;;;37.22;;
40314;SDS011;26021;45.640;11.302;2023-03-23T04:18:05;48.75;;;36.80;;
40314;SDS011;26021;45.640;11.302;2023-03-23T04:20:31;51.85;;;37.05;;
40314;SDS011;26021;45.640;11.302;2023-03-23T04:22:57;52.25;;;36.42;;
40314;SDS011;26021;45.640;11.302;2023-03-23T04:25:22;52.65;;;38.17;;
40314;SDS011;26021;45.640;11.302;2023-03-23T04:27:49;53.80;;;38.22;;
40314;SDS011;26021;45.640;11.302;2023-03-23T04:30:22;51.75;;;37.72;;
40314;SDS011;26021;45.640;11.302;2023-03-23T04:32:50;53.35;;;39.03;;
40314;SDS011;26021;45.640;11.302;2023-03-23T04:35:18;57.33;;;40.97;;
40314;SDS011;26021;45.640;11.302;2023-03-23T04:37:45;54.17;;;39.80;;
40314;SDS011;26021;45.640;11.302;2023-03-23T04:40:11;53.42;;;37.65;;
40314;SDS011;26021;45.640;11.302;2023-03-23T04:42:40;58.13;;;39.40;;
40314;SDS011;26021;45.640;11.302;2023-03-23T04:45:10;54.15;;;40.03;;
40314;SDS011;26021;45.640;11.302;2023-03-23T04:47:36;55.63;;;39.90;;
40314;SDS011;26021;45.640;11.302;2023-03-23T04:50:08;56.75;;;39.67;;
40314;SDS011;26021;45.640;11.302;2023-03-23T04:52:37;57.33;;;39.70;;
40314;SDS011;26021;45.640;11.302;2023-03-23T04:55:05;57.10;;;40.88;;
40314;SDS011;26021;45.640;11.302;2023-03-23T04:57:32;51.22;;;38.95;;
40314;SDS011;26021;45.640;11.302;2023-03-23T04:59:57;53.20;;;39.38;;
40314;SDS011;26021;45.640;11.302;2023-03-23T05:02:23;54.60;;;38.55;;
40314;SDS011;26021;45.640;11.302;2023-03-23T05:04:50;49.75;;;37.25;;
40314;SDS011;26021;45.640;11.302;2023-03-23T05:07:15;51.88;;;36.85;;
40314;SDS011;26021;45.640;11.302;2023-03-23T05:09:41;53.60;;;39.50;;
40314;SDS011;26021;45.640;11.302;2023-03-23T05:12:07;52.83;;;37.08;;
40314;SDS011;26021;45.640;11.302;2023-03-23T05:14:33;54.17;;;39.13;;
40314;SDS011;26021;45.640;11.302;2023-03-23T05:16:59;50.35;;;38.45;;
40314;SDS011;26021;45.640;11.302;2023-03-23T05:19:25;50.72;;;36.67;;
40314;SDS011;26021;45.640;11.302;2023-03-23T05:21:50;53.17;;;37.92;;
40314;SDS011;26021;45.640;11.302;2023-03-23T05:24:15;53.00;;;38.92;;
40314;SDS011;26021;45.640;11.302;2023-03-23T05:26:41;53.00;;;40.17;;
40314;SDS011;26021;45.640;11.302;2023-03-23T05:29:06;59.17;;;41.25;;
40314;SDS011;26021;45.640;11.302;2023-03-23T05:31:31;54.30;;;40.35;;
40314;SDS011;26021;45.640;11.302;2023-03-23T05:33:57;55.05;;;39.95;;
40314;SDS011;26021;45.640;11.302;2023-03-23T05:36:22;56.75;;;40.47;;
40314;SDS011;26021;45.640;11.302;2023-03-23T05:38:48;57.17;;;43.92;;
40314;SDS011;26021;45.640;11.302;2023-03-23T05:41:15;56.60;;;41.10;;
40314;SDS011;26021;45.640;11.302;2023-03-23T05:43:41;56.33;;;39.50;;
40314;SDS011;26021;45.640;11.302;2023-03-23T05:46:06;52.05;;;38.55;;
40314;SDS011;26021;45.640;11.302;2023-03-23T05:48:33;52.13;;;37.50;;
40314;SDS011;26021;45.640;11.302;2023-03-23T05:50:58;52.85;;;37.80;;
40314;SDS011;26021;45.640;11.302;2023-03-23T05:53:24;53.58;;;38.85;;
40314;SDS011;26021;45.640;11.302;2023-03-23T05:55:50;52.28;;;38.33;;
40314;SDS011;26021;45.640;11.302;2023-03-23T05:58:16;50.97;;;36.45;;
40314;SDS011;26021;45.640;11.302;2023-03-23T06:00:41;54.35;;;39.20;;
40314;SDS011;26021;45.640;11.302;2023-03-23T06:03:07;53.55;;;38.05;;
40314;SDS011;26021;45.640;11.302;2023-03-23T06:05:33;51.67;;;38.70;;
40314;SDS011;26021;45.640;11.302;2023-03-23T06:07:59;53.00;;;39.72;;
40314;SDS011;26021;45.640;11.302;2023-03-23T06:10:25;56.88;;;39.05;;
40314;SDS011;26021;45.640;11.302;2023-03-23T06:12:51;51.35;;;37.58;;
40314;SDS011;26021;45.640;11.302;2023-03-23T06:15:17;52.90;;;39.85;;
40314;SDS011;26021;45.640;11.302;2023-03-23T06:17:43;50.97;;;38.33;;
40314;SDS011;26021;45.640;11.302;2023-03-23T06:20:09;53.22;;;38.65;;
40314;SDS011;26021;45.640;11.302;2023-03-23T06:22:37;57.00;;;39.88;;
40314;SDS011;26021;45.640;11.302;2023-03-23T06:25:08;56.08;;;40.47;;
40314;SDS011;26021;45.640;11.302;2023-03-23T06:27:38;53.17;;;38.10;;
40314;SDS011;26021;45.640;11.302;2023-03-23T06:30:04;50.85;;;37.30;;
40314;SDS011;26021;45.640;11.302;2023-03-23T06:32:30;51.60;;;36.70;;
40314;SDS011;26021;45.640;11.302;2023-03-23T06:34:57;50.63;;;35.65;;
40314;SDS011;26021;45.640;11.302;2023-03-23T06:37:22;53.78;;;36.17;;
40314;SDS011;26021;45.640;11.302;2023-03-23T06:39:49;53.67;;;37.88;;
40314;SDS011;26021;45.640;11.302;2023-03-23T06:42:16;53.47;;;38.45;;
40314;SDS011;26021;45.640;11.302;2023-03-23T06:44:41;52.38;;;37.47;;
40314;SDS011;26021;45.640;11.302;2023-03-23T06:47:07;52.88;;;37.20;;
40314;SDS011;26021;45.640;11.302;2023-03-23T06:49:32;47.03;;;36.70;;
40314;SDS011;26021;45.640;11.302;2023-03-23T06:51:58;44.92;;;33.28;;
40314;SDS011;26021;45.640;11.302;2023-03-23T06:54:26;45.92;;;33.80;;
40314;SDS011;26021;45.640;11.302;2023-03-23T06:56:52;47.67;;;35.22;;
40314;SDS011;26021;45.640;11.302;2023-03-23T06:59:18;49.80;;;37.22;;
40314;SDS011;26021;45.640;11.302;2023-03-23T07:01:44;49.45;;;37.80;;
40314;SDS011;26021;45.640;11.302;2023-03-23T07:04:11;48.88;;;36.08;;
40314;SDS011;26021;45.640;11.302;2023-03-23T07:06:37;46.38;;;36.38;;
40314;SDS011;26021;45.640;11.302;2023-03-23T07:09:03;47.17;;;35.95;;
40314;SDS011;26021;45.640;11.302;2023-03-23T07:11:28;46.53;;;34.25;;
40314;SDS011;26021;45.640;11.302;2023-03-23T07:13:54;53.03;;;36.47;;
40314;SDS011;26021;45.640;11.302;2023-03-23T07:16:20;50.25;;;36.90;;
40314;SDS011;26021;45.640;11.302;2023-03-23T07:18:45;45.30;;;34.75;;
40314;SDS011;26021;45.640;11.302;2023-03-23T07:21:11;47.85;;;35.78;;
40314;SDS011;26021;45.640;11.302;2023-03-23T07:23:36;50.35;;;36.25;;
40314;SDS011;26021;45.640;11.302;2023-03-23T07:26:01;44.83;;;34.88;;
40314;SDS011;26021;45.640;11.302;2023-03-23T07:28:28;47.95;;;35.20;;
40314;SDS011;26021;45.640;11.302;2023-03-23T07:30:54;47.83;;;34.17;;
40314;SDS011;26021;45.640;11.302;2023-03-23T07:33:20;47.42;;;33.88;;
40314;SDS011;26021;45.640;11.302;2023-03-23T07:35:46;46.10;;;33.20;;
40314;SDS011;26021;45.640;11.302;2023-03-23T07:38:12;45.55;;;32.67;;
40314;SDS011;26021;45.640;11.302;2023-03-23T07:40:39;46.05;;;31.73;;
40314;SDS011;26021;45.640;11.302;2023-03-23T07:43:04;45.08;;;33.90;;
40314;SDS011;26021;45.640;11.302;2023-03-23T07:45:30;45.38;;;32.63;;
40314;SDS011;26021;45.640;11.302;2023-03-23T07:47:56;44.95;;;32.83;;
40314;SDS011;26021;45.640;11.302;2023-03-23T07:50:22;39.55;;;31.08;;
40314;SDS011;26021;45.640;11.302;2023-03-23T07:52:49;44.55;;;31.38;;
40314;SDS011;26021;45.640;11.302;2023-03-23T07:55:15;39.40;;;30.63;;
40314;SDS011;26021;45.640;11.302;2023-03-23T07:57:44;37.75;;;30.42;;
40314;SDS011;26021;45.640;11.302;2023-03-23T08:00:12;42.13;;;31.13;;
40314;SDS011;26021;45.640;11.302;2023-03-23T08:02:41;43.20;;;31.77;;
40314;SDS011;26021;45.640;11.302;2023-03-23T08:05:07;43.28;;;32.72;;
40314;SDS011;26021;45.640;11.302;2023-03-23T08:07:33;44.30;;;31.05;;
40314;SDS011;26021;45.640;11.302;2023-03-23T08:10:00;40.15;;;30.98;;
40314;SDS011;26021;45.640;11.302;2023-03-23T08:12:26;41.63;;;32.58;;
40314;SDS011;26021;45.640;11.302;2023-03-23T08:14:52;36.50;;;30.08;;
40314;SDS011;26021;45.640;11.302;2023-03-23T08:17:18;41.55;;;32.72;;
40314;SDS011;26021;45.640;11.302;2023-03-23T08:19:44;48.17;;;33.45;;
40314;SDS011;26021;45.640;11.302;2023-03-23T08:22:10;44.33;;;33.25;;
40314;SDS011;26021;45.640;11.302;2023-03-23T08:24:36;41.92;;;32.47;;
40314;SDS011;26021;45.640;11.302;2023-03-23T08:27:01;41.92;;;32.00;;
40314;SDS011;26021;45.640;11.302;2023-03-23T08:29:27;43.72;;;32.47;;
40314;SDS011;26021;45.640;11.302;2023-03-23T08:31:53;44.45;;;33.88;;
40314;SDS011;26021;45.640;11.302;2023-03-23T08:34:19;40.33;;;31.70;;
40314;SDS011;26021;45.640;11.302;2023-03-23T08:36:46;44.00;;;32.50;;
40314;SDS011;26021;45.640;11.302;2023-03-23T08:39:11;42.17;;;32.60;;
40314;SDS011;26021;45.640;11.302;2023-03-23T08:41:39;44.22;;;34.53;;
40314;SDS011;26021;45.640;11.302;2023-03-23T08:44:04;44.17;;;35.50;;
40314;SDS011;26021;45.640;11.302;2023-03-23T08:46:30;45.75;;;33.65;;
40314;SDS011;26021;45.640;11.302;2023-03-23T08:48:55;45.17;;;35.33;;
40314;SDS011;26021;45.640;11.302;2023-03-23T08:51:21;45.00;;;34.40;;
40314;SDS011;26021;45.640;11.302;2023-03-23T08:53:46;43.20;;;35.30;;
40314;SDS011;26021;45.640;11.302;2023-03-23T08:56:12;47.40;;;34.13;;
40314;SDS011;26021;45.640;11.302;2023-03-23T08:58:38;44.67;;;34.67;;
40314;SDS011;26021;45.640;11.302;2023-03-23T09:01:05;47.88;;;36.50;;
40314;SDS011;26021;45.640;11.302;2023-03-23T09:03:32;43.33;;;34.75;;
40314;SDS011;26021;45.640;11.302;2023-03-23T09:06:00;50.80;;;36.45;;
40314;SDS011;26021;45.640;11.302;2023-03-23T09:08:27;49.00;;;36.22;;
40314;SDS011;26021;45.640;11.302;2023-03-23T09:10:59;47.95;;;36.38;;
40314;SDS011;26021;45.640;11.302;2023-03-23T09:13:25;49.15;;;37.88;;
40314;SDS011;26021;45.640;11.302;2023-03-23T09:15:51;53.22;;;40.30;;
40314;SDS011;26021;45.640;11.302;2023-03-23T09:18:17;48.75;;;36.55;;
40314;SDS011;26021;45.640;11.302;2023-03-23T09:20:43;48.67;;;38.20;;
40314;SDS011;26021;45.640;11.302;2023-03-23T09:23:09;45.88;;;35.28;;
40314;SDS011;26021;45.640;11.302;2023-03-23T09:25:34;41.97;;;33.58;;
40314;SDS011;26021;45.640;11.302;2023-03-23T09:28:00;47.40;;;35.97;;
40314;SDS011;26021;45.640;11.302;2023-03-23T09:30:30;45.53;;;36.10;;
40314;SDS011;26021;45.640;11.302;2023-03-23T09:32:57;52.38;;;37.75;;
40314;SDS011;26021;45.640;11.302;2023-03-23T09:35:28;48.53;;;38.05;;
40314;SDS011;26021;45.640;11.302;2023-03-23T09:37:56;50.50;;;38.33;;
40314;SDS011;26021;45.640;11.302;2023-03-23T09:40:26;51.47;;;39.28;;
40314;SDS011;26021;45.640;11.302;2023-03-23T09:45:44;46.45;;;37.38;;
40314;SDS011;26021;45.640;11.302;2023-03-23T09:54:49;48.25;;;37.63;;
40314;SDS011;26021;45.640;11.302;2023-03-23T09:56:59;50.45;;;37.83;;
40314;SDS011;26021;45.640;11.302;2023-03-23T10:04:49;48.60;;;38.50;;
40314;SDS011;26021;45.640;11.302;2023-03-23T10:09:45;48.85;;;37.00;;
40314;SDS011;26021;45.640;11.302;2023-03-23T10:23:12;45.03;;;35.45;;
40314;SDS011;26021;45.640;11.302;2023-03-23T10:25:43;46.88;;;38.00;;
40314;SDS011;26021;45.640;11.302;2023-03-23T10:28:20;43.15;;;37.58;;
40314;SDS011;26021;45.640;11.302;2023-03-23T10:30:59;43.88;;;36.35;;
40314;SDS011;26021;45.640;11.302;2023-03-23T10:33:32;48.33;;;36.45;;
40314;SDS011;26021;45.640;11.302;2023-03-23T10:38:53;46.40;;;36.40;;
40314;SDS011;26021;45.640;11.302;2023-03-23T10:41:26;41.67;;;35.55;;
40314;SDS011;26021;45.640;11.302;2023-03-23T10:43:51;44.08;;;35.33;;
40314;SDS011;26021;45.640;11.302;2023-03-23T10:49:20;44.27;;;33.97;;
40314;SDS011;26021;45.640;11.302;2023-03-23T10:51:59;44.97;;;34.63;;
40314;SDS011;26021;45.640;11.302;2023-03-23T10:54:35;44.92;;;35.22;;
40314;SDS011;26021;45.640;11.302;2023-03-23T10:57:12;44.65;;;35.22;;
40314;SDS011;26021;45.640;11.302;2023-03-23T11:02:31;44.38;;;34.28;;
40314;SDS011;26021;45.640;11.302;2023-03-23T11:05:03;44.30;;;34.55;;
40314;SDS011;26021;45.640;11.302;2023-03-23T11:07:33;48.33;;;34.90;;
40314;SDS011;26021;45.640;11.302;2023-03-23T11:10:16;43.53;;;33.92;;
40314;SDS011;26021;45.640;11.302;2023-03-23T11:12:46;50.92;;;37.38;;
40314;SDS011;26021;45.640;11.302;2023-03-23T11:15:26;44.65;;;35.45;;
40314;SDS011;26021;45.640;11.302;2023-03-23T11:18:04;47.03;;;35.72;;
40314;SDS011;26021;45.640;11.302;2023-03-23T11:20:42;44.05;;;35.45;;
40314;SDS011;26021;45.640;11.302;2023-03-23T11:26:08;43.03;;;35.30;;
40314;SDS011;26021;45.640;11.302;2023-03-23T11:28:46;43.22;;;35.33;;
40314;SDS011;26021;45.640;11.302;2023-03-23T11:31:16;45.75;;;35.10;;
40314;SDS011;26021;45.640;11.302;2023-03-23T11:33:57;45.47;;;35.80;;
40314;SDS011;26021;45.640;11.302;2023-03-23T11:36:35;46.33;;;36.30;;
40314;SDS011;26021;45.640;11.302;2023-03-23T11:39:16;50.58;;;37.95;;
40314;SDS011;26021;45.640;11.302;2023-03-23T11:41:49;45.60;;;35.80;;
40314;SDS011;26021;45.640;11.302;2023-03-23T11:44:15;43.30;;;34.88;;
40314;SDS011;26021;45.640;11.302;2023-03-23T11:49:20;44.72;;;36.53;;
40314;SDS011;26021;45.640;11.302;2023-03-23T11:51:54;49.33;;;38.50;;
40314;SDS011;26021;45.640;11.302;2023-03-23T11:54:37;47.72;;;37.33;;
40314;SDS011;26021;45.640;11.302;2023-03-23T11:57:06;46.83;;;37.33;;
40314;SDS011;26021;45.640;11.302;2023-03-23T11:59:35;49.35;;;39.85;;
40314;SDS011;26021;45.640;11.302;2023-03-23T12:04:46;46.90;;;38.33;;
40314;SDS011;26021;45.640;11.302;2023-03-23T12:10:43;46.22;;;36.70;;
40314;SDS011;26021;45.640;11.302;2023-03-23T12:37:34;44.67;;;37.47;;
40314;SDS011;26021;45.640;11.302;2023-03-23T12:43:05;47.40;;;36.97;;
40314;SDS011;26021;45.640;11.302;2023-03-23T12:48:27;50.13;;;36.63;;
40314;SDS011;26021;45.640;11.302;2023-03-23T12:54:14;51.78;;;39.60;;
40314;SDS011;26021;45.640;11.302;2023-03-23T12:56:52;51.70;;;37.45;;
40314;SDS011;26021;45.640;11.302;2023-03-23T12:59:46;47.65;;;39.42;;
40314;SDS011;26021;45.640;11.302;2023-03-23T13:02:23;42.42;;;36.30;;
40314;SDS011;26021;45.640;11.302;2023-03-23T13:05:24;51.33;;;40.33;;
40314;SDS011;26021;45.640;11.302;2023-03-23T13:08:10;49.13;;;39.35;;
40314;SDS011;26021;45.640;11.302;2023-03-23T13:10:47;50.75;;;40.20;;
40314;SDS011;26021;45.640;11.302;2023-03-23T13:13:22;58.05;;;41.45;;
40314;SDS011;26021;45.640;11.302;2023-03-23T13:23:59;53.55;;;41.97;;
40314;SDS011;26021;45.640;11.302;2023-03-23T13:26:29;49.65;;;39.75;;
40314;SDS011;26021;45.640;11.302;2023-03-23T13:31:25;54.42;;;40.67;;
40314;SDS011;26021;45.640;11.302;2023-03-23T13:39:16;44.25;;;36.78;;
40314;SDS011;26021;45.640;11.302;2023-03-23T13:41:48;49.92;;;39.35;;
40314;SDS011;26021;45.640;11.302;2023-03-23T13:44:24;52.60;;;38.25;;
40314;SDS011;26021;45.640;11.302;2023-03-23T13:47:05;47.35;;;37.22;;
40314;SDS011;26021;45.640;11.302;2023-03-23T13:49:44;47.40;;;37.85;;
40314;SDS011;26021;45.640;11.302;2023-03-23T13:52:16;47.53;;;37.75;;
40314;SDS011;26021;45.640;11.302;2023-03-23T14:05:35;45.28;;;36.28;;
40314;SDS011;26021;45.640;11.302;2023-03-23T14:08:10;50.88;;;36.00;;
40314;SDS011;26021;45.640;11.302;2023-03-23T14:13:09;45.97;;;33.80;;
40314;SDS011;26021;45.640;11.302;2023-03-23T14:15:56;48.38;;;35.17;;
40314;SDS011;26021;45.640;11.302;2023-03-23T14:18:25;48.67;;;36.00;;
40314;SDS011;26021;45.640;11.302;2023-03-23T14:20:55;49.40;;;37.42;;
40314;SDS011;26021;45.640;11.302;2023-03-23T14:23:22;49.85;;;36.30;;
40314;SDS011;26021;45.640;11.302;2023-03-23T14:26:01;50.45;;;38.03;;
40314;SDS011;26021;45.640;11.302;2023-03-23T14:28:36;51.20;;;37.45;;
40314;SDS011;26021;45.640;11.302;2023-03-23T14:31:03;47.72;;;35.22;;
40314;SDS011;26021;45.640;11.302;2023-03-23T14:33:29;45.63;;;34.20;;
40314;SDS011;26021;45.640;11.302;2023-03-23T14:35:56;45.35;;;35.45;;
40314;SDS011;26021;45.640;11.302;2023-03-23T14:38:24;50.42;;;34.33;;
40314;SDS011;26021;45.640;11.302;2023-03-23T14:40:59;52.50;;;35.47;;
40314;SDS011;26021;45.640;11.302;2023-03-23T14:43:29;50.42;;;36.63;;
40314;SDS011;26021;45.640;11.302;2023-03-23T14:45:59;48.35;;;35.85;;
40314;SDS011;26021;45.640;11.302;2023-03-23T14:48:26;46.28;;;33.85;;
40314;SDS011;26021;45.640;11.302;2023-03-23T14:50:57;45.00;;;35.42;;
40314;SDS011;26021;45.640;11.302;2023-03-23T14:53:37;44.70;;;34.13;;
40314;SDS011;26021;45.640;11.302;2023-03-23T14:56:08;47.28;;;34.30;;
40314;SDS011;26021;45.640;11.302;2023-03-23T14:58:38;43.75;;;34.00;;
40314;SDS011;26021;45.640;11.302;2023-03-23T15:01:09;40.45;;;31.17;;
40314;SDS011;26021;45.640;11.302;2023-03-23T15:03:40;42.67;;;33.17;;
40314;SDS011;26021;45.640;11.302;2023-03-23T15:06:12;42.80;;;31.63;;
40314;SDS011;26021;45.640;11.302;2023-03-23T15:08:40;45.53;;;31.83;;
40314;SDS011;26021;45.640;11.302;2023-03-23T15:11:08;45.08;;;31.67;;
40314;SDS011;26021;45.640;11.302;2023-03-23T15:13:45;46.70;;;31.35;;
40314;SDS011;26021;45.640;11.302;2023-03-23T15:16:26;42.78;;;30.30;;
40314;SDS011;26021;45.640;11.302;2023-03-23T15:18:58;41.50;;;30.92;;
40314;SDS011;26021;45.640;11.302;2023-03-23T15:21:33;46.65;;;30.55;;
40314;SDS011;26021;45.640;11.302;2023-03-23T15:24:00;40.08;;;28.08;;
40314;SDS011;26021;45.640;11.302;2023-03-23T15:29:01;37.28;;;27.00;;
40314;SDS011;26021;45.640;11.302;2023-03-23T15:31:33;37.15;;;26.13;;
40314;SDS011;26021;45.640;11.302;2023-03-23T15:34:03;41.35;;;27.02;;
40314;SDS011;26021;45.640;11.302;2023-03-23T15:36:33;37.80;;;26.20;;
40314;SDS011;26021;45.640;11.302;2023-03-23T15:39:00;38.45;;;24.25;;
40314;SDS011;26021;45.640;11.302;2023-03-23T15:41:27;39.97;;;24.98;;
40314;SDS011;26021;45.640;11.302;2023-03-23T15:43:56;40.47;;;26.67;;
40314;SDS011;26021;45.640;11.302;2023-03-23T15:46:24;32.00;;;23.27;;
40314;SDS011;26021;45.640;11.302;2023-03-23T15:48:52;39.03;;;25.13;;
40314;SDS011;26021;45.640;11.302;2023-03-23T15:51:30;33.10;;;23.17;;
40314;SDS011;26021;45.640;11.302;2023-03-23T15:53:57;35.13;;;23.42;;
40314;SDS011;26021;45.640;11.302;2023-03-23T15:56:23;33.85;;;23.05;;
40314;SDS011;26021;45.640;11.302;2023-03-23T15:58:49;31.90;;;22.58;;
40314;SDS011;26021;45.640;11.302;2023-03-23T16:01:25;35.03;;;22.83;;
40314;SDS011;26021;45.640;11.302;2023-03-23T16:03:54;37.10;;;23.48;;
40314;SDS011;26021;45.640;11.302;2023-03-23T16:06:23;32.83;;;23.40;;
40314;SDS011;26021;45.640;11.302;2023-03-23T16:08:54;37.28;;;24.85;;
40314;SDS011;26021;45.640;11.302;2023-03-23T16:11:21;33.75;;;24.00;;
40314;SDS011;26021;45.640;11.302;2023-03-23T16:13:47;36.95;;;25.27;;
40314;SDS011;26021;45.640;11.302;2023-03-23T16:16:13;37.63;;;25.45;;
40314;SDS011;26021;45.640;11.302;2023-03-23T16:18:41;34.47;;;23.35;;
40314;SDS011;26021;45.640;11.302;2023-03-23T16:21:07;35.17;;;23.45;;
40314;SDS011;26021;45.640;11.302;2023-03-23T16:23:33;41.38;;;25.77;;
40314;SDS011;26021;45.640;11.302;2023-03-23T16:25:58;40.00;;;24.75;;
40314;SDS011;26021;45.640;11.302;2023-03-23T16:28:24;36.40;;;25.75;;
40314;SDS011;26021;45.640;11.302;2023-03-23T16:30:49;33.17;;;24.88;;
40314;SDS011;26021;45.640;11.302;2023-03-23T16:33:15;36.70;;;27.10;;
40314;SDS011;26021;45.640;11.302;2023-03-23T16:35:40;34.50;;;24.15;;
40314;SDS011;26021;45.640;11.302;2023-03-23T16:38:09;39.83;;;26.42;;